sensor_id;sensor_type;location;lat;lon;timestamp;P1;durP1;ratioP1;P2;durP2;ratioP2
9214;SDS011;4642;51.364;6.788;2023-11-19T00:02:12;8.37;;;6.73;;
9214;SDS011;4642;51.364;6.788;2023-11-19T00:04:37;12.30;;;6.67;;
9214;SDS011;4642;51.364;6.788;2023-11-19T00:07:06;10.00;;;6.10;;
9214;SDS011;4642;51.364;6.788;2023-11-19T00:09:33;9.03;;;5.63;;
9214;SDS011;4642;51.364;6.788;2023-11-19T00:12:01;11.40;;;6.33;;
9214;SDS011;4642;51.364;6.788;2023-11-19T00:14:27;12.63;;;5.47;;
9214;SDS011;4642;51.364;6.788;2023-11-19T00:16:54;7.07;;;4.70;;
9214;SDS011;4642;51.364;6.788;2023-11-19T00:19:19;7.50;;;4.50;;
9214;SDS011;4642;51.364;6.788;2023-11-19T00:21:45;10.67;;;4.37;;
9214;SDS011;4642;51.364;6.788;2023-11-19T00:24:11;13.30;;;4.93;;
9214;SDS011;4642;51.364;6.788;2023-11-19T00:26:37;6.27;;;4.23;;
9214;SDS011;4642;51.364;6.788;2023-11-19T00:29:03;6.03;;;4.20;;
9214;SDS011;4642;51.364;6.788;2023-11-19T00:31:29;12.47;;;4.23;;
9214;SDS011;4642;51.364;6.788;2023-11-19T00:33:54;10.73;;;3.73;;
9214;SDS011;4642;51.364;6.788;2023-11-19T00:36:20;9.07;;;3.73;;
9214;SDS011;4642;51.364;6.788;2023-11-19T00:38:46;7.77;;;3.83;;
9214;SDS011;4642;51.364;6.788;2023-11-19T00:41:11;6.77;;;3.50;;
9214;SDS011;4642;51.364;6.788;2023-11-19T00:43:37;5.07;;;3.50;;
9214;SDS011;4642;51.364;6.788;2023-11-19T00:46:03;3.97;;;3.37;;
9214;SDS011;4642;51.364;6.788;2023-11-19T00:48:32;11.07;;;4.23;;
9214;SDS011;4642;51.364;6.788;2023-11-19T00:50:57;8.17;;;4.37;;
9214;SDS011;4642;51.364;6.788;2023-11-19T00:53:23;7.70;;;4.60;;
9214;SDS011;4642;51.364;6.788;2023-11-19T00:55:48;9.40;;;4.10;;
9214;SDS011;4642;51.364;6.788;2023-11-19T00:58:14;6.20;;;4.67;;
9214;SDS011;4642;51.364;6.788;2023-11-19T01:00:39;7.60;;;4.60;;
9214;SDS011;4642;51.364;6.788;2023-11-19T01:03:05;5.33;;;4.17;;
9214;SDS011;4642;51.364;6.788;2023-11-19T01:05:32;5.10;;;4.30;;
9214;SDS011;4642;51.364;6.788;2023-11-19T01:07:58;6.77;;;4.73;;
9214;SDS011;4642;51.364;6.788;2023-11-19T01:10:23;5.47;;;4.10;;
9214;SDS011;4642;51.364;6.788;2023-11-19T01:12:50;8.30;;;4.30;;
9214;SDS011;4642;51.364;6.788;2023-11-19T01:15:16;6.47;;;4.07;;
9214;SDS011;4642;51.364;6.788;2023-11-19T01:17:43;6.40;;;3.40;;
9214;SDS011;4642;51.364;6.788;2023-11-19T01:20:09;5.70;;;4.00;;
9214;SDS011;4642;51.364;6.788;2023-11-19T01:22:38;3.97;;;3.43;;
9214;SDS011;4642;51.364;6.788;2023-11-19T01:25:03;7.40;;;3.50;;
9214;SDS011;4642;51.364;6.788;2023-11-19T01:27:30;4.07;;;3.30;;
9214;SDS011;4642;51.364;6.788;2023-11-19T01:29:56;5.43;;;3.00;;
9214;SDS011;4642;51.364;6.788;2023-11-19T01:32:21;5.50;;;3.13;;
9214;SDS011;4642;51.364;6.788;2023-11-19T01:34:49;6.20;;;3.40;;
9214;SDS011;4642;51.364;6.788;2023-11-19T01:37:14;3.63;;;2.77;;
9214;SDS011;4642;51.364;6.788;2023-11-19T01:39:43;4.70;;;2.73;;
9214;SDS011;4642;51.364;6.788;2023-11-19T01:42:09;4.87;;;2.93;;
9214;SDS011;4642;51.364;6.788;2023-11-19T01:44:36;4.93;;;3.03;;
9214;SDS011;4642;51.364;6.788;2023-11-19T01:47:02;4.00;;;2.60;;
9214;SDS011;4642;51.364;6.788;2023-11-19T01:49:29;6.60;;;2.77;;
9214;SDS011;4642;51.364;6.788;2023-11-19T01:51:57;6.30;;;2.80;;
9214;SDS011;4642;51.364;6.788;2023-11-19T01:54:23;3.20;;;2.47;;
9214;SDS011;4642;51.364;6.788;2023-11-19T01:56:49;4.83;;;2.40;;
9214;SDS011;4642;51.364;6.788;2023-11-19T01:59:15;3.90;;;2.10;;
9214;SDS011;4642;51.364;6.788;2023-11-19T02:01:41;5.03;;;2.70;;
9214;SDS011;4642;51.364;6.788;2023-11-19T02:04:08;5.80;;;3.00;;
9214;SDS011;4642;51.364;6.788;2023-11-19T02:06:34;5.20;;;2.70;;
9214;SDS011;4642;51.364;6.788;2023-11-19T02:09:04;6.27;;;2.80;;
9214;SDS011;4642;51.364;6.788;2023-11-19T02:11:33;5.87;;;2.60;;
9214;SDS011;4642;51.364;6.788;2023-11-19T02:14:00;4.03;;;2.47;;
9214;SDS011;4642;51.364;6.788;2023-11-19T02:16:25;3.77;;;2.67;;
9214;SDS011;4642;51.364;6.788;2023-11-19T02:18:51;5.70;;;2.90;;
9214;SDS011;4642;51.364;6.788;2023-11-19T02:21:16;7.83;;;2.43;;
9214;SDS011;4642;51.364;6.788;2023-11-19T02:23:43;8.10;;;3.17;;
9214;SDS011;4642;51.364;6.788;2023-11-19T02:26:18;6.47;;;2.50;;
9214;SDS011;4642;51.364;6.788;2023-11-19T02:28:56;7.53;;;2.43;;
9214;SDS011;4642;51.364;6.788;2023-11-19T02:31:22;9.23;;;2.30;;
9214;SDS011;4642;51.364;6.788;2023-11-19T02:33:48;9.47;;;2.43;;
9214;SDS011;4642;51.364;6.788;2023-11-19T02:36:15;9.77;;;2.37;;
9214;SDS011;4642;51.364;6.788;2023-11-19T02:38:41;11.83;;;2.57;;
9214;SDS011;4642;51.364;6.788;2023-11-19T02:41:07;8.23;;;2.60;;
9214;SDS011;4642;51.364;6.788;2023-11-19T02:43:33;8.37;;;2.70;;
9214;SDS011;4642;51.364;6.788;2023-11-19T02:46:02;10.30;;;2.53;;
9214;SDS011;4642;51.364;6.788;2023-11-19T02:48:31;11.33;;;2.50;;
9214;SDS011;4642;51.364;6.788;2023-11-19T02:50:57;9.60;;;2.50;;
9214;SDS011;4642;51.364;6.788;2023-11-19T02:53:23;12.73;;;2.93;;
9214;SDS011;4642;51.364;6.788;2023-11-19T02:55:49;12.77;;;3.10;;
9214;SDS011;4642;51.364;6.788;2023-11-19T02:58:15;10.83;;;2.63;;
9214;SDS011;4642;51.364;6.788;2023-11-19T03:00:45;10.93;;;3.17;;
9214;SDS011;4642;51.364;6.788;2023-11-19T03:03:19;15.13;;;3.40;;
9214;SDS011;4642;51.364;6.788;2023-11-19T03:05:47;13.70;;;3.57;;
9214;SDS011;4642;51.364;6.788;2023-11-19T03:08:14;11.50;;;3.87;;
9214;SDS011;4642;51.364;6.788;2023-11-19T03:10:40;16.50;;;4.03;;
9214;SDS011;4642;51.364;6.788;2023-11-19T03:13:07;19.73;;;3.70;;
9214;SDS011;4642;51.364;6.788;2023-11-19T03:15:38;22.67;;;4.00;;
9214;SDS011;4642;51.364;6.788;2023-11-19T03:18:03;14.60;;;4.10;;
9214;SDS011;4642;51.364;6.788;2023-11-19T03:20:29;19.90;;;4.43;;
9214;SDS011;4642;51.364;6.788;2023-11-19T03:22:55;18.97;;;4.33;;
9214;SDS011;4642;51.364;6.788;2023-11-19T03:25:22;18.10;;;3.97;;
9214;SDS011;4642;51.364;6.788;2023-11-19T03:27:51;18.07;;;4.20;;
9214;SDS011;4642;51.364;6.788;2023-11-19T03:30:18;21.10;;;4.20;;
9214;SDS011;4642;51.364;6.788;2023-11-19T03:32:45;17.80;;;4.30;;
9214;SDS011;4642;51.364;6.788;2023-11-19T03:35:11;27.13;;;4.97;;
9214;SDS011;4642;51.364;6.788;2023-11-19T03:37:37;24.00;;;5.93;;
9214;SDS011;4642;51.364;6.788;2023-11-19T03:40:04;16.47;;;4.23;;
9214;SDS011;4642;51.364;6.788;2023-11-19T03:42:30;22.73;;;4.77;;
9214;SDS011;4642;51.364;6.788;2023-11-19T03:44:56;24.93;;;5.03;;
9214;SDS011;4642;51.364;6.788;2023-11-19T03:47:22;21.07;;;4.93;;
9214;SDS011;4642;51.364;6.788;2023-11-19T03:49:51;23.57;;;5.70;;
9214;SDS011;4642;51.364;6.788;2023-11-19T03:52:17;27.00;;;5.63;;
9214;SDS011;4642;51.364;6.788;2023-11-19T03:54:43;24.13;;;5.60;;
9214;SDS011;4642;51.364;6.788;2023-11-19T03:57:09;21.40;;;5.00;;
9214;SDS011;4642;51.364;6.788;2023-11-19T03:59:35;24.53;;;5.03;;
9214;SDS011;4642;51.364;6.788;2023-11-19T04:02:01;23.17;;;5.23;;
9214;SDS011;4642;51.364;6.788;2023-11-19T04:04:27;25.03;;;4.27;;
9214;SDS011;4642;51.364;6.788;2023-11-19T04:06:54;23.73;;;4.60;;
9214;SDS011;4642;51.364;6.788;2023-11-19T04:09:20;35.80;;;4.67;;
9214;SDS011;4642;51.364;6.788;2023-11-19T04:11:46;30.50;;;4.30;;
9214;SDS011;4642;51.364;6.788;2023-11-19T04:14:12;32.13;;;5.40;;
9214;SDS011;4642;51.364;6.788;2023-11-19T04:16:38;26.23;;;4.27;;
9214;SDS011;4642;51.364;6.788;2023-11-19T04:19:04;28.40;;;4.60;;
9214;SDS011;4642;51.364;6.788;2023-11-19T04:21:30;22.60;;;4.20;;
9214;SDS011;4642;51.364;6.788;2023-11-19T04:23:55;25.57;;;4.47;;
9214;SDS011;4642;51.364;6.788;2023-11-19T04:26:21;27.20;;;4.40;;
9214;SDS011;4642;51.364;6.788;2023-11-19T04:28:46;20.17;;;4.50;;
9214;SDS011;4642;51.364;6.788;2023-11-19T04:31:14;20.60;;;4.17;;
9214;SDS011;4642;51.364;6.788;2023-11-19T04:33:41;23.33;;;4.80;;
9214;SDS011;4642;51.364;6.788;2023-11-19T04:36:07;25.93;;;6.37;;
9214;SDS011;4642;51.364;6.788;2023-11-19T04:38:33;26.03;;;4.57;;
9214;SDS011;4642;51.364;6.788;2023-11-19T04:40:58;29.03;;;5.73;;
9214;SDS011;4642;51.364;6.788;2023-11-19T04:43:24;33.33;;;5.60;;
9214;SDS011;4642;51.364;6.788;2023-11-19T04:45:49;22.17;;;4.17;;
9214;SDS011;4642;51.364;6.788;2023-11-19T04:48:15;27.37;;;5.23;;
9214;SDS011;4642;51.364;6.788;2023-11-19T04:50:40;25.90;;;4.47;;
9214;SDS011;4642;51.364;6.788;2023-11-19T04:53:06;28.77;;;5.13;;
9214;SDS011;4642;51.364;6.788;2023-11-19T04:55:31;20.10;;;4.60;;
9214;SDS011;4642;51.364;6.788;2023-11-19T04:57:57;30.43;;;5.63;;
9214;SDS011;4642;51.364;6.788;2023-11-19T05:00:23;36.77;;;5.30;;
9214;SDS011;4642;51.364;6.788;2023-11-19T05:02:48;19.53;;;3.83;;
9214;SDS011;4642;51.364;6.788;2023-11-19T05:05:15;23.23;;;4.60;;
9214;SDS011;4642;51.364;6.788;2023-11-19T05:07:41;22.57;;;4.10;;
9214;SDS011;4642;51.364;6.788;2023-11-19T05:10:07;23.97;;;5.20;;
9214;SDS011;4642;51.364;6.788;2023-11-19T05:12:33;20.73;;;4.23;;
9214;SDS011;4642;51.364;6.788;2023-11-19T05:14:59;21.97;;;4.40;;
9214;SDS011;4642;51.364;6.788;2023-11-19T05:17:25;23.63;;;4.67;;
9214;SDS011;4642;51.364;6.788;2023-11-19T05:19:50;25.50;;;4.03;;
9214;SDS011;4642;51.364;6.788;2023-11-19T05:22:16;18.17;;;4.70;;
9214;SDS011;4642;51.364;6.788;2023-11-19T05:24:42;27.47;;;4.77;;
9214;SDS011;4642;51.364;6.788;2023-11-19T05:27:07;28.17;;;4.63;;
9214;SDS011;4642;51.364;6.788;2023-11-19T05:29:33;21.00;;;3.97;;
9214;SDS011;4642;51.364;6.788;2023-11-19T05:31:59;20.83;;;4.97;;
9214;SDS011;4642;51.364;6.788;2023-11-19T05:34:25;23.43;;;3.80;;
9214;SDS011;4642;51.364;6.788;2023-11-19T05:36:52;19.60;;;3.83;;
9214;SDS011;4642;51.364;6.788;2023-11-19T05:39:17;25.07;;;3.90;;
9214;SDS011;4642;51.364;6.788;2023-11-19T05:41:45;25.30;;;5.13;;
9214;SDS011;4642;51.364;6.788;2023-11-19T05:44:10;31.70;;;4.70;;
9214;SDS011;4642;51.364;6.788;2023-11-19T05:46:36;20.00;;;3.87;;
9214;SDS011;4642;51.364;6.788;2023-11-19T05:49:05;19.70;;;4.20;;
9214;SDS011;4642;51.364;6.788;2023-11-19T05:51:31;22.30;;;4.80;;
9214;SDS011;4642;51.364;6.788;2023-11-19T05:53:56;23.70;;;4.63;;
9214;SDS011;4642;51.364;6.788;2023-11-19T05:56:22;22.30;;;4.77;;
9214;SDS011;4642;51.364;6.788;2023-11-19T05:58:48;23.33;;;4.17;;
9214;SDS011;4642;51.364;6.788;2023-11-19T06:01:14;31.03;;;4.70;;
9214;SDS011;4642;51.364;6.788;2023-11-19T06:03:40;25.70;;;4.77;;
9214;SDS011;4642;51.364;6.788;2023-11-19T06:06:06;27.70;;;4.27;;
9214;SDS011;4642;51.364;6.788;2023-11-19T06:08:31;31.47;;;4.60;;
9214;SDS011;4642;51.364;6.788;2023-11-19T06:10:57;25.40;;;4.23;;
9214;SDS011;4642;51.364;6.788;2023-11-19T06:13:23;20.13;;;4.47;;
9214;SDS011;4642;51.364;6.788;2023-11-19T06:15:50;24.63;;;4.10;;
9214;SDS011;4642;51.364;6.788;2023-11-19T06:18:16;28.00;;;4.93;;
9214;SDS011;4642;51.364;6.788;2023-11-19T06:20:43;15.07;;;3.93;;
9214;SDS011;4642;51.364;6.788;2023-11-19T06:23:09;25.43;;;4.73;;
9214;SDS011;4642;51.364;6.788;2023-11-19T06:25:34;24.03;;;4.80;;
9214;SDS011;4642;51.364;6.788;2023-11-19T06:28:00;23.53;;;4.90;;
9214;SDS011;4642;51.364;6.788;2023-11-19T06:30:26;27.33;;;4.40;;
9214;SDS011;4642;51.364;6.788;2023-11-19T06:32:53;23.13;;;4.47;;
9214;SDS011;4642;51.364;6.788;2023-11-19T06:35:19;23.77;;;5.17;;
9214;SDS011;4642;51.364;6.788;2023-11-19T06:37:44;22.80;;;5.13;;
9214;SDS011;4642;51.364;6.788;2023-11-19T06:40:10;25.03;;;4.63;;
9214;SDS011;4642;51.364;6.788;2023-11-19T06:42:37;25.00;;;4.83;;
9214;SDS011;4642;51.364;6.788;2023-11-19T06:45:03;17.73;;;3.97;;
9214;SDS011;4642;51.364;6.788;2023-11-19T06:47:29;23.70;;;4.37;;
9214;SDS011;4642;51.364;6.788;2023-11-19T06:49:55;24.17;;;4.77;;
9214;SDS011;4642;51.364;6.788;2023-11-19T06:52:20;28.00;;;5.90;;
9214;SDS011;4642;51.364;6.788;2023-11-19T06:54:46;27.70;;;4.40;;
9214;SDS011;4642;51.364;6.788;2023-11-19T06:57:12;30.03;;;4.93;;
9214;SDS011;4642;51.364;6.788;2023-11-19T06:59:38;24.33;;;4.57;;
9214;SDS011;4642;51.364;6.788;2023-11-19T07:02:04;21.47;;;4.00;;
9214;SDS011;4642;51.364;6.788;2023-11-19T07:04:30;22.60;;;4.43;;
9214;SDS011;4642;51.364;6.788;2023-11-19T07:06:56;28.50;;;4.40;;
9214;SDS011;4642;51.364;6.788;2023-11-19T07:09:22;30.83;;;6.27;;
9214;SDS011;4642;51.364;6.788;2023-11-19T07:11:48;26.37;;;4.73;;
9214;SDS011;4642;51.364;6.788;2023-11-19T07:14:16;22.53;;;4.00;;
9214;SDS011;4642;51.364;6.788;2023-11-19T07:16:42;26.23;;;4.17;;
9214;SDS011;4642;51.364;6.788;2023-11-19T07:19:08;30.37;;;4.73;;
9214;SDS011;4642;51.364;6.788;2023-11-19T07:21:34;23.37;;;4.57;;
9214;SDS011;4642;51.364;6.788;2023-11-19T07:24:00;21.43;;;4.70;;
9214;SDS011;4642;51.364;6.788;2023-11-19T07:26:26;25.17;;;4.43;;
9214;SDS011;4642;51.364;6.788;2023-11-19T07:28:52;30.23;;;5.67;;
9214;SDS011;4642;51.364;6.788;2023-11-19T07:31:18;22.53;;;3.90;;
9214;SDS011;4642;51.364;6.788;2023-11-19T07:33:46;22.43;;;4.17;;
9214;SDS011;4642;51.364;6.788;2023-11-19T07:36:13;19.10;;;4.17;;
9214;SDS011;4642;51.364;6.788;2023-11-19T07:38:38;30.80;;;4.87;;
9214;SDS011;4642;51.364;6.788;2023-11-19T07:41:05;23.27;;;4.50;;
9214;SDS011;4642;51.364;6.788;2023-11-19T07:43:31;31.43;;;5.80;;
9214;SDS011;4642;51.364;6.788;2023-11-19T07:45:57;23.70;;;4.57;;
9214;SDS011;4642;51.364;6.788;2023-11-19T07:48:26;15.37;;;4.53;;
9214;SDS011;4642;51.364;6.788;2023-11-19T07:50:52;27.23;;;5.20;;
9214;SDS011;4642;51.364;6.788;2023-11-19T07:53:18;20.20;;;4.17;;
9214;SDS011;4642;51.364;6.788;2023-11-19T07:55:44;21.63;;;4.50;;
9214;SDS011;4642;51.364;6.788;2023-11-19T07:58:10;25.50;;;4.33;;
9214;SDS011;4642;51.364;6.788;2023-11-19T08:00:37;21.80;;;4.37;;
9214;SDS011;4642;51.364;6.788;2023-11-19T08:03:03;32.70;;;4.73;;
9214;SDS011;4642;51.364;6.788;2023-11-19T08:05:29;22.33;;;4.20;;
9214;SDS011;4642;51.364;6.788;2023-11-19T08:07:56;21.13;;;5.47;;
9214;SDS011;4642;51.364;6.788;2023-11-19T08:10:21;31.57;;;5.33;;
9214;SDS011;4642;51.364;6.788;2023-11-19T08:12:47;30.27;;;5.87;;
9214;SDS011;4642;51.364;6.788;2023-11-19T08:15:13;27.83;;;5.13;;
9214;SDS011;4642;51.364;6.788;2023-11-19T08:17:39;29.30;;;5.30;;
9214;SDS011;4642;51.364;6.788;2023-11-19T08:20:04;30.53;;;5.43;;
9214;SDS011;4642;51.364;6.788;2023-11-19T08:22:35;33.77;;;6.23;;
9214;SDS011;4642;51.364;6.788;2023-11-19T08:25:01;28.37;;;4.57;;
9214;SDS011;4642;51.364;6.788;2023-11-19T08:27:26;21.73;;;4.83;;
9214;SDS011;4642;51.364;6.788;2023-11-19T08:29:55;28.03;;;4.63;;
9214;SDS011;4642;51.364;6.788;2023-11-19T08:32:22;22.30;;;5.03;;
9214;SDS011;4642;51.364;6.788;2023-11-19T08:34:48;30.17;;;5.70;;
9214;SDS011;4642;51.364;6.788;2023-11-19T08:37:13;29.87;;;5.00;;
9214;SDS011;4642;51.364;6.788;2023-11-19T08:39:39;25.77;;;4.63;;
9214;SDS011;4642;51.364;6.788;2023-11-19T08:42:06;35.13;;;6.00;;
9214;SDS011;4642;51.364;6.788;2023-11-19T08:44:31;33.53;;;5.03;;
9214;SDS011;4642;51.364;6.788;2023-11-19T08:46:57;25.90;;;5.13;;
9214;SDS011;4642;51.364;6.788;2023-11-19T08:49:22;25.43;;;4.33;;
9214;SDS011;4642;51.364;6.788;2023-11-19T08:51:48;21.47;;;4.73;;
9214;SDS011;4642;51.364;6.788;2023-11-19T08:54:14;24.97;;;5.30;;
9214;SDS011;4642;51.364;6.788;2023-11-19T08:56:39;26.23;;;5.93;;
9214;SDS011;4642;51.364;6.788;2023-11-19T08:59:05;31.17;;;5.37;;
9214;SDS011;4642;51.364;6.788;2023-11-19T09:01:31;27.97;;;4.77;;
9214;SDS011;4642;51.364;6.788;2023-11-19T09:03:56;32.83;;;5.30;;
9214;SDS011;4642;51.364;6.788;2023-11-19T09:06:22;28.23;;;4.90;;
9214;SDS011;4642;51.364;6.788;2023-11-19T09:08:48;33.30;;;5.27;;
9214;SDS011;4642;51.364;6.788;2023-11-19T09:11:13;38.53;;;5.03;;
9214;SDS011;4642;51.364;6.788;2023-11-19T09:13:39;30.97;;;5.27;;
9214;SDS011;4642;51.364;6.788;2023-11-19T09:16:04;25.33;;;4.83;;
9214;SDS011;4642;51.364;6.788;2023-11-19T09:18:31;24.93;;;4.70;;
9214;SDS011;4642;51.364;6.788;2023-11-19T09:20:57;19.43;;;4.37;;
9214;SDS011;4642;51.364;6.788;2023-11-19T09:23:23;24.03;;;4.80;;
9214;SDS011;4642;51.364;6.788;2023-11-19T09:25:50;26.47;;;4.43;;
9214;SDS011;4642;51.364;6.788;2023-11-19T09:28:15;26.17;;;5.27;;
9214;SDS011;4642;51.364;6.788;2023-11-19T09:30:41;35.47;;;5.60;;
9214;SDS011;4642;51.364;6.788;2023-11-19T09:33:06;25.53;;;5.00;;
9214;SDS011;4642;51.364;6.788;2023-11-19T09:35:32;28.53;;;5.03;;
9214;SDS011;4642;51.364;6.788;2023-11-19T09:37:59;29.67;;;4.93;;
9214;SDS011;4642;51.364;6.788;2023-11-19T09:40:24;21.57;;;5.10;;
9214;SDS011;4642;51.364;6.788;2023-11-19T09:42:50;33.10;;;5.27;;
9214;SDS011;4642;51.364;6.788;2023-11-19T09:45:16;29.70;;;5.00;;
9214;SDS011;4642;51.364;6.788;2023-11-19T09:47:45;24.53;;;5.00;;
9214;SDS011;4642;51.364;6.788;2023-11-19T09:50:14;25.27;;;5.83;;
9214;SDS011;4642;51.364;6.788;2023-11-19T09:52:43;29.33;;;5.90;;
9214;SDS011;4642;51.364;6.788;2023-11-19T09:55:09;28.10;;;4.90;;
9214;SDS011;4642;51.364;6.788;2023-11-19T09:57:35;30.57;;;5.73;;
9214;SDS011;4642;51.364;6.788;2023-11-19T10:00:04;25.50;;;5.47;;
9214;SDS011;4642;51.364;6.788;2023-11-19T10:02:32;30.27;;;5.03;;
9214;SDS011;4642;51.364;6.788;2023-11-19T10:05:01;27.47;;;5.50;;
9214;SDS011;4642;51.364;6.788;2023-11-19T10:07:30;29.50;;;4.90;;
9214;SDS011;4642;51.364;6.788;2023-11-19T10:09:57;27.80;;;5.30;;
9214;SDS011;4642;51.364;6.788;2023-11-19T10:12:25;27.43;;;5.60;;
9214;SDS011;4642;51.364;6.788;2023-11-19T10:14:51;28.13;;;5.70;;
9214;SDS011;4642;51.364;6.788;2023-11-19T10:17:18;28.77;;;5.23;;
9214;SDS011;4642;51.364;6.788;2023-11-19T10:19:44;25.20;;;4.70;;
9214;SDS011;4642;51.364;6.788;2023-11-19T10:22:09;35.93;;;5.23;;
9214;SDS011;4642;51.364;6.788;2023-11-19T10:24:36;26.97;;;5.20;;
9214;SDS011;4642;51.364;6.788;2023-11-19T10:27:06;26.73;;;5.87;;
9214;SDS011;4642;51.364;6.788;2023-11-19T10:29:35;27.83;;;5.20;;
9214;SDS011;4642;51.364;6.788;2023-11-19T10:32:02;31.03;;;5.53;;
9214;SDS011;4642;51.364;6.788;2023-11-19T10:34:28;25.60;;;5.77;;
9214;SDS011;4642;51.364;6.788;2023-11-19T10:36:55;25.63;;;4.80;;
9214;SDS011;4642;51.364;6.788;2023-11-19T10:39:20;23.93;;;5.57;;
9214;SDS011;4642;51.364;6.788;2023-11-19T10:41:46;21.57;;;4.77;;
9214;SDS011;4642;51.364;6.788;2023-11-19T10:44:11;24.17;;;5.30;;
9214;SDS011;4642;51.364;6.788;2023-11-19T10:46:38;31.97;;;5.20;;
9214;SDS011;4642;51.364;6.788;2023-11-19T10:49:08;23.23;;;4.33;;
9214;SDS011;4642;51.364;6.788;2023-11-19T10:51:34;25.90;;;5.07;;
9214;SDS011;4642;51.364;6.788;2023-11-19T10:54:06;21.27;;;4.77;;
9214;SDS011;4642;51.364;6.788;2023-11-19T10:56:32;23.00;;;4.93;;
9214;SDS011;4642;51.364;6.788;2023-11-19T10:58:59;22.63;;;4.73;;
9214;SDS011;4642;51.364;6.788;2023-11-19T11:01:26;25.03;;;5.57;;
9214;SDS011;4642;51.364;6.788;2023-11-19T11:03:58;29.13;;;5.47;;
9214;SDS011;4642;51.364;6.788;2023-11-19T11:06:26;22.57;;;4.33;;
9214;SDS011;4642;51.364;6.788;2023-11-19T11:08:52;20.10;;;5.13;;
9214;SDS011;4642;51.364;6.788;2023-11-19T11:11:19;21.97;;;5.10;;
9214;SDS011;4642;51.364;6.788;2023-11-19T11:13:46;24.20;;;5.57;;
9214;SDS011;4642;51.364;6.788;2023-11-19T11:16:14;28.13;;;4.90;;
9214;SDS011;4642;51.364;6.788;2023-11-19T11:18:43;24.60;;;5.10;;
9214;SDS011;4642;51.364;6.788;2023-11-19T11:21:14;24.20;;;4.67;;
9214;SDS011;4642;51.364;6.788;2023-11-19T11:24:05;18.27;;;4.57;;
9214;SDS011;4642;51.364;6.788;2023-11-19T11:29:27;24.07;;;4.23;;
9214;SDS011;4642;51.364;6.788;2023-11-19T11:38:00;26.27;;;5.43;;
9214;SDS011;4642;51.364;6.788;2023-11-19T11:40:29;26.57;;;4.67;;
9214;SDS011;4642;51.364;6.788;2023-11-19T11:42:54;22.27;;;4.30;;
9214;SDS011;4642;51.364;6.788;2023-11-19T11:45:20;20.27;;;4.33;;
9214;SDS011;4642;51.364;6.788;2023-11-19T11:50:35;23.57;;;4.47;;
9214;SDS011;4642;51.364;6.788;2023-11-19T11:53:15;17.63;;;4.07;;
9214;SDS011;4642;51.364;6.788;2023-11-19T11:58:17;23.57;;;4.93;;
9214;SDS011;4642;51.364;6.788;2023-11-19T12:00:43;30.13;;;4.93;;
9214;SDS011;4642;51.364;6.788;2023-11-19T12:03:10;21.87;;;4.63;;
9214;SDS011;4642;51.364;6.788;2023-11-19T12:05:43;25.73;;;4.20;;
9214;SDS011;4642;51.364;6.788;2023-11-19T12:08:10;20.90;;;4.50;;
9214;SDS011;4642;51.364;6.788;2023-11-19T12:10:38;18.17;;;4.00;;
9214;SDS011;4642;51.364;6.788;2023-11-19T12:13:08;16.73;;;3.97;;
9214;SDS011;4642;51.364;6.788;2023-11-19T12:16:06;18.93;;;3.77;;
9214;SDS011;4642;51.364;6.788;2023-11-19T12:18:23;17.43;;;3.90;;
9214;SDS011;4642;51.364;6.788;2023-11-19T12:20:51;21.30;;;3.90;;
9214;SDS011;4642;51.364;6.788;2023-11-19T12:23:16;18.50;;;4.57;;
9214;SDS011;4642;51.364;6.788;2023-11-19T12:25:42;21.13;;;3.93;;
9214;SDS011;4642;51.364;6.788;2023-11-19T12:28:13;23.47;;;4.13;;
9214;SDS011;4642;51.364;6.788;2023-11-19T12:30:42;25.33;;;4.27;;
9214;SDS011;4642;51.364;6.788;2023-11-19T12:33:09;17.27;;;3.80;;
9214;SDS011;4642;51.364;6.788;2023-11-19T12:35:41;16.87;;;3.43;;
9214;SDS011;4642;51.364;6.788;2023-11-19T12:38:08;17.57;;;4.30;;
9214;SDS011;4642;51.364;6.788;2023-11-19T12:40:46;19.10;;;3.60;;
9214;SDS011;4642;51.364;6.788;2023-11-19T12:43:21;13.50;;;4.30;;
9214;SDS011;4642;51.364;6.788;2023-11-19T12:45:47;17.60;;;3.63;;
9214;SDS011;4642;51.364;6.788;2023-11-19T12:48:13;19.33;;;4.63;;
9214;SDS011;4642;51.364;6.788;2023-11-19T12:53:18;17.27;;;4.00;;
9214;SDS011;4642;51.364;6.788;2023-11-19T12:55:44;17.13;;;4.13;;
9214;SDS011;4642;51.364;6.788;2023-11-19T12:58:09;15.70;;;3.17;;
9214;SDS011;4642;51.364;6.788;2023-11-19T13:00:35;14.17;;;3.43;;
9214;SDS011;4642;51.364;6.788;2023-11-19T13:03:01;18.60;;;3.97;;
9214;SDS011;4642;51.364;6.788;2023-11-19T13:05:30;15.93;;;4.33;;
9214;SDS011;4642;51.364;6.788;2023-11-19T13:08:04;15.47;;;3.50;;
9214;SDS011;4642;51.364;6.788;2023-11-19T13:10:32;18.50;;;3.87;;
9214;SDS011;4642;51.364;6.788;2023-11-19T13:15:26;17.67;;;4.00;;
9214;SDS011;4642;51.364;6.788;2023-11-19T13:17:52;22.47;;;3.70;;
9214;SDS011;4642;51.364;6.788;2023-11-19T13:20:18;15.93;;;4.13;;
9214;SDS011;4642;51.364;6.788;2023-11-19T13:23:17;19.07;;;4.20;;
9214;SDS011;4642;51.364;6.788;2023-11-19T13:25:36;19.97;;;3.73;;
9214;SDS011;4642;51.364;6.788;2023-11-19T13:28:01;16.80;;;4.07;;
9214;SDS011;4642;51.364;6.788;2023-11-19T13:30:27;20.30;;;4.03;;
9214;SDS011;4642;51.364;6.788;2023-11-19T13:32:54;24.00;;;4.87;;
9214;SDS011;4642;51.364;6.788;2023-11-19T13:35:20;22.13;;;4.10;;
9214;SDS011;4642;51.364;6.788;2023-11-19T13:37:47;19.50;;;3.47;;
9214;SDS011;4642;51.364;6.788;2023-11-19T13:40:13;17.67;;;3.70;;
9214;SDS011;4642;51.364;6.788;2023-11-19T13:42:40;27.47;;;4.97;;
9214;SDS011;4642;51.364;6.788;2023-11-19T13:45:07;18.80;;;3.97;;
9214;SDS011;4642;51.364;6.788;2023-11-19T13:47:41;15.63;;;3.67;;
9214;SDS011;4642;51.364;6.788;2023-11-19T13:50:09;20.63;;;4.10;;
9214;SDS011;4642;51.364;6.788;2023-11-19T13:52:36;27.07;;;4.03;;
9214;SDS011;4642;51.364;6.788;2023-11-19T13:55:05;18.90;;;3.70;;
9214;SDS011;4642;51.364;6.788;2023-11-19T13:57:32;19.00;;;3.63;;
9214;SDS011;4642;51.364;6.788;2023-11-19T13:59:59;18.10;;;3.97;;
9214;SDS011;4642;51.364;6.788;2023-11-19T14:02:25;19.80;;;4.33;;
9214;SDS011;4642;51.364;6.788;2023-11-19T14:04:50;13.60;;;3.57;;
9214;SDS011;4642;51.364;6.788;2023-11-19T14:07:16;18.30;;;3.70;;
9214;SDS011;4642;51.364;6.788;2023-11-19T14:09:42;22.53;;;4.50;;
9214;SDS011;4642;51.364;6.788;2023-11-19T14:12:07;19.00;;;4.07;;
9214;SDS011;4642;51.364;6.788;2023-11-19T14:14:34;24.63;;;4.27;;
9214;SDS011;4642;51.364;6.788;2023-11-19T14:17:01;18.73;;;4.43;;
9214;SDS011;4642;51.364;6.788;2023-11-19T14:19:28;17.83;;;3.63;;
9214;SDS011;4642;51.364;6.788;2023-11-19T14:21:54;26.87;;;4.47;;
9214;SDS011;4642;51.364;6.788;2023-11-19T14:24:19;17.73;;;3.77;;
9214;SDS011;4642;51.364;6.788;2023-11-19T14:26:48;17.60;;;3.57;;
9214;SDS011;4642;51.364;6.788;2023-11-19T14:29:15;22.50;;;3.80;;
9214;SDS011;4642;51.364;6.788;2023-11-19T14:31:40;22.63;;;4.17;;
9214;SDS011;4642;51.364;6.788;2023-11-19T14:34:06;15.70;;;3.57;;
9214;SDS011;4642;51.364;6.788;2023-11-19T14:36:32;15.47;;;3.50;;
9214;SDS011;4642;51.364;6.788;2023-11-19T14:38:57;15.90;;;3.27;;
9214;SDS011;4642;51.364;6.788;2023-11-19T14:41:23;21.53;;;5.17;;
9214;SDS011;4642;51.364;6.788;2023-11-19T14:43:49;19.87;;;3.43;;
9214;SDS011;4642;51.364;6.788;2023-11-19T14:46:15;25.17;;;4.50;;
9214;SDS011;4642;51.364;6.788;2023-11-19T14:48:41;24.73;;;4.27;;
9214;SDS011;4642;51.364;6.788;2023-11-19T14:51:06;20.97;;;4.23;;
9214;SDS011;4642;51.364;6.788;2023-11-19T14:53:32;16.03;;;3.83;;
9214;SDS011;4642;51.364;6.788;2023-11-19T14:55:58;16.63;;;3.27;;
9214;SDS011;4642;51.364;6.788;2023-11-19T14:58:23;19.07;;;3.87;;
9214;SDS011;4642;51.364;6.788;2023-11-19T15:00:50;16.83;;;3.33;;
9214;SDS011;4642;51.364;6.788;2023-11-19T15:03:16;13.90;;;3.20;;
9214;SDS011;4642;51.364;6.788;2023-11-19T15:05:44;19.90;;;4.57;;
9214;SDS011;4642;51.364;6.788;2023-11-19T15:08:10;21.97;;;3.80;;
9214;SDS011;4642;51.364;6.788;2023-11-19T15:10:36;20.57;;;3.50;;
9214;SDS011;4642;51.364;6.788;2023-11-19T15:13:02;23.03;;;3.80;;
9214;SDS011;4642;51.364;6.788;2023-11-19T15:15:29;19.37;;;3.87;;
9214;SDS011;4642;51.364;6.788;2023-11-19T15:17:54;16.60;;;3.43;;
9214;SDS011;4642;51.364;6.788;2023-11-19T15:20:20;20.73;;;3.77;;